Timeline UpdatesTrip UpdatesNews PostsPvt Posts♥♥Travel TipsAdmin PostsConv PostsFollowed PostsChat RequestsBlog PostsPNR Posts

Disclaimer
Search
 
 
Wed Oct 22, 2014 08:44:45 ISTHomeTrainsΣChainsAtlasPNRForumGalleryNewsFAQTripsMembersLoginFeedback
No Recent News for this Train
Other Trains in the News **new
Latest...
.
Sun Oct 13, 2013 (09:03AM)
⇐ Return Journey: Train# 12166

12165/Ratnagiri Express

NO Time-Table Change.
Sep 24 (5:03PM)
Change Departure Station:
Change Arrival Station:
Post a Train Travel TipPost a Train Travel Tip **new
Post a Comment/Question/Picture/VideoPost a Comment/Question/Picture/Video
Pantry/Catering
✓ Pantry Car Avbl
✓ Catering Avbl
Loco/Rake Reversals
ALD/Allahabad Junction (10);
RSA - Rake Sharing
.
Rake/Coach Composition
LOCO-SLR-GEN-GEN-GEN-GEN-A1-B1-S1-S2-PC-S3-S4-S5-S6-S7-S8-S9-S10-S11-S12-S13-GEN-GEN-SLR (SLR-2; GEN-5; SL-13; 2AC-1; 3AC-1;PC-1=23 coaches)
Loco
LTT-ET: ET WAM/P-4 ET-BSB: ET WDM-3A
News    PNR    Forum    Time-Table    Availability    Fare Chart    Map    Arr/Dep History    Trips    Gallery    ΣChains    X/O    Timeline    
Travel Time: 8h 40m    1 halts    Distance: 552 km    Avg Speed: 63 km/hr
Type: SuperFast
Zone: CR/Central
Departs @ 12:00 (Avg 38m late)
Platform# 5
 M  TF 
Bhusaval Junction/BSL 
Arrives @ 20:40 (Avg 14m late)
Platform# 4
 M  TF 
Jabalpur Junction/JBP 

1 halts. 68 intermediate Stations between Bhusaval Junction and Jabalpur Junction

Hide intermediate Stations  

#TrkCodeStation NameX/OArrivesAvgDepartsAvgHaltPFDay#KmSpeedElevZoneAddress
1/==/LTTMumbai Lokmanya Tilak Terminus (5)  -05:20+131-426.1557mCRMumbai - 400089, Maharashtra
1.1/==/VVHVidyavihar (2)  05:21-05:21-  1-424.8 558mCRMumbai, Maharashtra
1.2/==/GCGhatkopar (4)  05:23-05:23-  1-423.4 5511mCRMumbai 400086, Maharashtra
1.3/==/VKVikhroli (4)X  05:27-05:27-  1-419.8 5510mCRMumbai, Maharashtra
1.4/==/KJMGKanjur Marg (2)X  05:29-05:29-  1-417.9 555mCRMumbai, Maharashtra
1.5/==/BNDBhandup (4)X  05:31-05:31-  1-416.0 557mCRMumbai 400078, Maharashtra
1.6/==/NHUNahur (2)X  05:33-05:33-  1-414.4 555mCRMumbai, Maharashtra
1.7/==/MLNDMulund (4)X  05:35-05:35-  1-412.2 5512mCRMumbai, Maharashtra
2/==/TNAThane (10)  05:38+805:40+82m71-409.64910mCRThane (West) 400602, Maharashtra
2.1/==/KLVAKalva (2)  05:43-05:43-  1-407.1 495mCRKalva, Maharashtra
2.2/==/MBQMumbra (2)X  05:49-05:49-  1-402.6 498mCRMumbra, Maharashtra
2.3/==/DIVADiva Junction (6)X  05:52-05:52-  1-400.0 493mCRJn Pt TNA/PNVL/KYN/BSR Diva, Maharashtra
2.4/==/KOPRKopar (4)X  05:57-05:57-  1-395.7 490mCRKopar, Maharashtra
2.5/==/DIDombivli (5)  05:59-05:59-  1-394.4 4911mCRDombivli, Maharashtra
2.6/==/THKThakurli (2)  06:01-06:01-  1-393.0 4914mCRThakurli, Maharashtra
3/==/KYNKalyan Junction (8)  06:05+1006:10+115m41-389.44910mCRKalyan 421301, Maharashtra
3.1/==/SHADShahad (2)X  06:14-06:14-  1-386.2 4912mCRUlhasnagar, Maharashtra
3.2/==/ABYAmbivli (2)X  06:18-06:18-  1-383.2 4922mCRAmbivli, Maharashtra
3.3/==/TLATitwala (3)X  06:23-06:23-  1-378.4 4917mCRTitwala, Maharashtra
3.4/==/KDVKhadavli (3)  06:33-06:33-  1-370.8 4923mCRKhadavli, Maharashtra
3.5/==/VSDVasind (2)  06:42-06:42-  1-363.2 4932mCRVasind, Maharashtra
3.6/==/ASOAsangaon (3)  06:49-06:49-  1-357.2 4977mCRDist. Thane, Maharashtra
3.7/==/ATGAtgaon (2)X  07:01-07:01-  1-347.4 49147mCRAtgaon, Maharashtra
3.8/==/THSThansit  07:09-07:09-  1-341.5 49184mCRNational Highway 3, Maharashtra
3.9/==/KEKhardi (2)X  07:16-07:16-  1-335.3 49232mCRKhardi, Maharashtra
3.10/==/OMBOombermali  07:24-07:24-  1-328.8 49248mCROombermali, Maharashtra
3.11/==/KSRAKasara (4)  07:32-07:32-  1-322.0 49290mCRDist. Thane 421602, Maharashtra
3.12/==/TGR3Block & Catch Siding Cabin 3X  07:37-07:37-  1-318.2 49365mCRNH-3, Maharashtra
3.13/==/TGR2Block & Catch Siding Cabin 2  07:41-07:41-  1-314.7 49473mCRNational Highway 3, Maharashtra
4/==/IGPIgatpuri (4)X07:50+407:55+95m11-307.668589mCRIgatpuri 422403, Maharashtra
4.1/==/GOGhoti (2)X  08:02-08:02-  1-299.5 68581mCRGhoti, Maharashtra
4.2/==/PIPadli (1)X  08:10-08:10-  1-291.2 68591mCRNational Highway 3, Maharashtra
4.3/==/AVAsvali (2)X  08:17-08:17-  1-282.7 68578mCRAsvali, Maharashtra
4.4/==/LTLahavit (1)X  08:28-08:28-  1-270.3 68587mCRWadhiware, Maharashtra
4.5/==/DVLDevlali (3)X  08:35-08:35-  1-262.7 68561mCRDist. Nashik 422401, Maharashtra
5/==/NKNasik Road (3)X  08:40+1408:45+135m21-257.087563mCRNashik 422101, Maharashtra
5.1/==/ODHAOdha (2)X  08:53-08:53-  1-245.3 87571mCRDist. Nashik, Maharashtra
5.2/==/KWKhervadi (2)X  08:58-08:58-  1-238.3 87553mCRKherwadi, Maharashtra
5.3/==/KBSNKasbe Sukene (3)  09:02-09:02-  1-231.6 87548mCRKasbe Sukene, Maharashtra
5.4/==/NRNiphad (3)X  09:07-09:07-  1-225.6 87550mCRNashik, Maharashtra
5.5/==/UGNUgaon (2)X  09:11-09:11-  1-218.6 87568mCRUgaon, Maharashtra
5.6/==/LSLasalgaon (3)  09:18-09:18-  1-208.7 87592mCRLasalgaon, Maharashtra
5.7/==/SUMSummit (2)  09:27-09:27-  1-196.6 87632mCRSummit, Maharashtra
6/==/MMRManmad Junction (6)X  09:35+1809:40+185m21-184.298580mCRManmad 423104, Maharashtra
6.1/==/PNVPanevadi (2)XO  09:44-09:44-  1-178.5 98561mCRPanevadi, Maharashtra
6.2/==/HSLHisvahal (2)  09:48-09:48-  1-170.7 98540mCRHisvahal, Maharashtra
6.3/==/PJNPanjhan (2)  09:52-09:52-  1-165.3 98514mCRPanjhan, Maharashtra
6.4/==/NGNNandgaon (3)X  09:56-09:56-  1-158.8 98476mCRNandgaon, Maharashtra
6.5/==/PKEPimpar Khed (2)X  10:02-10:02-  1-148.0 98462mCRPimpar Khed, Maharashtra
6.6/==/NINaydongri (2)  10:08-10:08-  1-138.2 98427mCRNaydongri, Maharashtra
6.7/==/RHNERohini (2)  10:11-10:11-  1-133.6 98422mCRRohini, Maharashtra
6.8/==/HPRHirapur (2)X  10:17-10:17-  1-124.5 98373mCRHirapur, Maharashtra
6.9/==/CSNChalisgaon Junction (3)  10:21-10:21-  1-116.7 98352mCRChalisgaon 424101, Maharashtra
6.10/==/VGLVaghli (2)  10:27-10:27-  1-107.3 98331mCRVaghli, Maharashtra
6.11/==/KJKajgaon (3)X  10:33-10:33-  1-97.6 98297mCRKajgaon, Maharashtra
6.12/==/NGDNagardevla (2)  10:37-10:37-  1-90.7 98280mCRNagardevla, Maharashtra
6.13/==/GAAGalan (2)  10:42-10:42-  1-82.3 98282mCRGalan, Maharashtra
6.14/==/PCPachora Junction (4)  10:49-10:49-  1-71.8 98264mCRPachora 424201, Maharashtra
6.15/==/PHQPardhande (2)  10:53-10:53-  1-64.4 98243mCRPardhande, Maharashtra
6.16/==/MYJMaheji (2)X  10:58-10:58-  1-57.0 98247mCRJalgaon, Maharashtra
6.17/==/MWDMhasavad (3)X  11:05-11:05-  1-45.2 98220mCRMhasavad, Maharashtra
6.18/==/SSShirsoli (2)  11:11-11:11-  1-35.9 98211mCRShirsoli, Maharashtra
7/==/JLJalgaon Junction (4)  11:18+4111:20+432m31-24.158213mCRJalgaon 425001, Maharashtra
7.1/==/TRWTarsod  11:25-11:25-  1-19.4 58206mCRAsoda - Tarsod Road, Maharashtra
7.2/==/BDIBhadli (2)  11:32-11:32-  1-12.6 58211mCRBhadli, Maharashtra
8/==/BSLBhusaval Junction (8)»XO  11:45+4212:00+3815m510.061208mCRBhusaval 425201, Maharashtra
8.1/==/BSBNBhusaval B CabinO  12:03-12:03-  13.4 61214mCRBhusawal, Maharashtra
8.2/==/DSKDuskheda (2)  12:07-12:07-  16.7 61213mCRDuskheda Station, Maharashtra
8.3/==/SAVSavda (2)X  12:15-12:15-  115.4 61220mCRSavda, Maharashtra
8.4/==/NBNimbhora (2)  12:24-12:24-  124.1 61229mCRJalgaon, Maharashtra
8.5/==/RVRaver (2)X  12:34-12:34-  134.3 61242mCRJalgaon, Maharashtra
8.6/==/WGAWaghodaX  12:43-12:43-  144.2 61259mCRChorwad, Maharashtra
8.7/==/BAUBurhanpur (2)  12:53-12:53-  154.5 61269mCRBurhanpur, Madhya Pradesh
8.8/==/AGQAsirgarh Road (2)  13:02-13:02-  163.4 61259mCRState Highway 27, Madhya Pradesh
8.9/==/CDIChandni (2)  13:12-13:12-  173.7 61276mCRNepanagar Rd, Madhya Pradesh
8.10/==/NPNRNepanagar (2)XO  13:19-13:19-  180.7 61289mCRState Highway 27, Madhya Pradesh
8.11/==/MWAMandwa (2)  13:25-13:25-  186.5 61317mCRState Highway 27, Madhya Pradesh
8.12/==/SXASagphata (2)  13:30-13:30-  192.5 61350mCRKhandwa, Madhya Pradesh
8.13/==/DGNDongargaon (2)  13:38-13:38-  1100.2 61373mCRBorgaon, Madhya Pradesh
8.14/==/KDKKohdad (2)X  13:45-13:45-  1107.8 61344mCRState Highway 15, Madhya Pradesh
8.15/==/BMABagmar (2)  13:50-13:50-  1112.2 61335mCRState Highway 27, Madhya Pradesh
8.16/==/BRGJBargaon Gujar (2)  13:56-13:56-  1118.2 61316mCRKhandwa, Madhya Pradesh
8.17/==/KNWKhandwa Junction (5)  14:01-14:01-  1123.4 61310mCRKhandwa, Madhya Pradesh
8.18/==/MTAMathela (2)  14:08-14:08-  1130.7 61322mWCRKhandwa, Madhya Pradesh
8.19/==/TLVTalvadiya (2)X  14:16-14:16-  1139.1 61308mWCRKhandwa, Madhya Pradesh
8.20/==/SGBJSurgaon Banjari (2)X  14:28-14:28-  1150.9 61298mWCRKhandwa, Madhya Pradesh
8.21/==/CKKDCharkheda Khurd (2)X  14:38-14:38-  1162.0 61274mWCRKhandwa, Madhya Pradesh
8.22/==/CAERChhanera (2)X  14:45-14:45-  1168.8 61283mWCRChhanera, Madhya Pradesh
8.23/==/BRUDBarud (2)  14:55-14:55-  1178.9 61273mWCRKhandwa, Madhya Pradesh
8.24/==/DRHIDagarhkeri (2)X  15:04-15:04-  1188.5 61274mWCRState Highway 15, Madhya Pradesh
8.25/==/KKNKhirkiya (2)  15:15-15:15-  1199.5 61281mWCRSH 15, Madhya Pradesh
8.26/==/KROKurawan (2)X  15:21-15:21-  1205.8 61297mWCRSH 15, Madhya Pradesh
8.27/==/BRIBhiringi (2)X  15:28-15:28-  1212.5 61294mWCRSH 15, Madhya Pradesh
8.28/==/MUOMasangaon (2)  15:33-15:33-  1217.7 61303mWCRSH 15, Madhya Pradesh
8.29/==/PALPalasner (2)  15:39-15:39-  1223.6 61296mWCRHarda, Madhya Pradesh
8.30/==/HDHarda (3)X  15:46-15:46-  1231.0 61289mWCRHarda, Madhya Pradesh
8.31/==/CRKCharkhera (2)  15:53-15:53-  1238.0 61298mWCRBarkalan, Madhya Pradesh
8.32/==/TBNTimarni (2)X  16:00-16:00-  1245.1 61308mWCRTimarni, Madhya Pradesh
8.33/==/CGOChhidgaon (2)X  16:09-16:09-  1254.6 61309mWCRHarda, Madhya Pradesh
8.34/==/PGLPagdhal (2)  16:13-16:13-  1258.7 61317mWCRPagdhal, Madhya Pradesh
8.35/==/BIFBhaironpur (2)  16:20-16:20-  1266.0 61322mWCRSH 15, Madhya Pradesh
8.36/==/BPFBanapura (2)  16:27-16:27-  1273.3 61314mWCRBanapura, Madhya Pradesh
8.37/==/DKIDharamkundi (2)  16:35-16:35-  1281.5 61314mWCRSH 15, Madhya Pradesh
8.38/==/KTZKhutwansa (2)  16:43-16:43-  1288.9 61325mWCRSH 15, Madhya Pradesh
8.39/==/DRADularia (2)O  16:48-16:48-  1294.5 61318mWCRItarsi, Madhya Pradesh
8.40/==/ETBItarsi B Cabin  16:54-16:54-  1300.6 61320mWCRJamani, Madhya Pradesh
8.41/==/JUHJujharpur Cabin  16:59-16:59-  1305.8 61322mWCRItarsi, Madhya Pradesh
8.42/==/ITMAItarsi Marshalling Yard  16:59-16:59-  1305.9 61324mWCRItarsi, Madhya Pradesh
9/==/ETItarsi Junction (7)O17:00+317:10+1010m51306.870329mWCRItarsi 461111, Madhya Pradesh
9.1|==|GROGurra (2)  17:19-17:19-  1317.4 70327mWCRItarsi, Madhya Pradesh
9.2|=-|SQLSontalai (2)X  17:27-17:27-  1326.4 70329mWCRItarsi, Madhya Pradesh
9.3|-=|BGTABagratawa (2)  17:33-17:33-  1333.2 70338mWCRBagra Tawa, Madhya Pradesh
9.4|==|GMDGuramkhedi (2)  17:44-17:44-  1346.3 70337mWCRGuramkhedi, Madhya Pradesh
9.5|==|SGPSohagpur (2)  17:52-17:52-  1356.3 70340mWCRSohagpur, Madhya Pradesh
9.6|==|SXFSobhapur (2)X  18:00-18:00-  1365.4 70338mWCRState Highway 22, Madhya Pradesh
9.7|==|PPIPipariya (3)X  18:08-18:08-  1374.0 70338mWCRPiparia, Madhya Pradesh
9.8|==|BKHBankhedi (2)  18:24-18:24-  1393.4 70351mWCRBankheri, Madhya Pradesh
9.9|==|JHTJunehta (2)  18:29-18:29-  1399.4 70353mWCRState Highway 22, Madhya Pradesh
9.10|==|SCKRSalichauka Road (2)X  18:38-18:38-  1409.5 70355mWCRGadarwara, Madhya Pradesh
9.11|==|GARGadarwara (2)  18:50-18:50-  1423.4 70352mWCRNarsinghpur, Madhya Pradesh
9.12|==|BNEBohani (2)  19:01-19:01-  1436.3 70361mWCRNarsinghpur, Madhya Pradesh
9.13|==|KFYKarapgaon (2)  19:07-19:07-  1443.3 70363mWCRNational Highway 26, Madhya Pradesh
9.14|==|KYKareli (2)X  19:14-19:14-  1451.9 70361mWCRKareli, Madhya Pradesh
9.15|==|NUNarsinghpur (2)  19:28-19:28-  1467.7 70365mWCRNarsimhapur, Madhya Pradesh
9.16|==!GPCGhatpindrai (2)  19:33-19:33-  1473.5 70366mWCRGhatpindra, Madhya Pradesh
9.17!==|BELDBelkhera (2)X  19:38-19:38-  1479.0 70367mWCRState Highway 22, Madhya Pradesh
9.18!==|KKBKarak Bel (2)X  19:41-19:41-  1483.4 70375mWCRKarak Bel, Madhya Pradesh
9.19|==|SRIDShridham (3)X  19:55-19:55-  1498.9 70373mWCRShridham, Madhya Pradesh
9.20|==|BMRBikrampur (2)  20:05-20:05-  1510.6 70353mWCRBikrampur Dist Narsingpur., Madhya Pradesh
9.21|==|BHTNBhitoni (2)  20:15-20:15-  1522.2 70377mWCRJabalpur, Madhya Pradesh
9.22|==|BRGTBheraghat (2)  20:26-20:26-  1535.3 70389mWCRBheraghat, Madhya Pradesh
9.23|==|KEQKachhpura (2)  20:36-20:36-  1546.7 70392mWCRJabalpur, Madhya Pradesh
9.24|==|MMLMadan Mahal (3)  20:37-20:37-  1548.5 70428mWCRJabalpur, Madhya Pradesh
9.25|==|HBGHowbagh Jabalpur (2)O  20:38-20:38-  1549.7 70405mSECRJabalpur, Madhya Pradesh
10|==|JBPJabalpur Junction (4)•XO  20:40+1420:50+2010m41551.860416mWCRJabalpur, Madhya Pradesh
10.1|==|ADTLAdhartal (2)X  20:58-20:58-  1560.0 60393mWCRJabalpur, Madhya Pradesh
10.2|==|DOEDeori (2)  21:07-21:07-  1568.7 60392mWCRJabalpur, Madhya Pradesh
10.3|==|GSPRGosalpur (2)X  21:17-21:17-  1579.3 60396mWCRJabalpur, Madhya Pradesh
10.4|==|SHRSihora Road (2)X  21:28-21:28-  1590.4 60388mWCRJabalpur, Madhya Pradesh
10.5|==|DDCEDundi (2)  21:43-21:43-  1605.3 60415mWCRDundi, Madhya Pradesh
10.6|==|SBDSleemanabad Road (2)  21:53-21:53-  1614.8 60434mWCRSleemanabad, Madhya Pradesh
10.7|==|SNRRSansarpur (2)X  21:59-21:59-  1621.7 60436mWCRNational Highway 7, Madhya Pradesh
10.8|==|NWRNiwar (2)X  22:07-22:07-  1629.5 60412mWCRPipraundh, Madhya Pradesh
10.9|==|MDRRMadhavnagar Road (2)  22:15-22:15-  1637.4 60398mWCRMadhavnagar, Madhya Pradesh
10.10|==%KTESKatni South  22:18-22:18-  1640.8 60386mWCRKatni, Madhya Pradesh
10.11|==%KTEKatni Junction (6)X  22:20-22:20-  1642.6 60387mWCRKatni, Madhya Pradesh
10.12%==%PTWAPatwara (2)  22:29-22:29-  1651.6 60398mWCRNational Highway 34 Distric Katni Madhya Pradesh, Madhya Pradesh
10.13%==%JKEJukehi (3)X  22:38-22:38-  1660.0 60402mWCRJukehi, Madhya Pradesh
10.14%==%PKRDPakara Road (2)X  22:47-22:47-  1669.8 60381mWCRPakara, Madhya Pradesh
10.15%==%UDRAmdara (2)XO  22:57-22:57-  1679.5 60376mWCRNational Highway 34, Madhya Pradesh
10.16%==%BUUBhadanpur (2)X  23:09-23:09-  1692.1 60362mWCRNational Highway 7, Madhya Pradesh
10.17%==%MYRMaihar (3)X  23:23-23:23-  1705.6 60353mWCRMaihar Railway Station, Madhya Pradesh
10.18%==%UHRUnchhera (2)XO  23:37-23:37-  1719.8 60331mWCRUnchhera, Madhya Pradesh
10.19%==%LGCELagargawan (2)  23:47-23:47-  1729.4 60319mWCRLagargawan, Madhya Pradesh
11%==%STASatna Junction (3)  23:58+600:10+812m21741.048322mWCRSatna, Madhya Pradesh
11.1%==%SAGMSagma (1)X  00:18-00:18-  2747.2 48337mWCRSatna, Madhya Pradesh
11.2%==%HATIHati  00:29-00:29-  2756.2 48310mWCRBhad, Madhya Pradesh
11.3%==%JTWJaitwar (2)X  00:35-00:35-  2761.0 48321mWCRJaitwar, Madhya Pradesh
11.4%==%KTHAKhutaha  00:44-00:44-  2768.5 48332mWCRMDR 11, Madhya Pradesh
11.5%==%CTHRChitahra  00:53-00:53-  2776.0 48367mWCRMDR 11, Madhya Pradesh
11.6%==%MJGMajhagawan  01:01-01:01-  2781.8 48343mWCRMajhgawa, Madhya Pradesh
11.7%==%EDAItwan DundailaX  01:07-01:07-  2787.3 48320mWCRMajhgawa, Madhya Pradesh
11.8%==%TKYRTikaria (2)X  01:17-01:17-  2794.9 48268mWCRMDR 11, Madhya Pradesh
11.9%==%MKDMarkundi  01:27-01:27-  2802.8 48270mWCRState Highway 11, Madhya Pradesh
11.10%==%BQFBarah Muafi  01:37-01:37-  2810.8 48264mWCRBarahmuafi, Uttar Pradesh
11.11%==%BNSPBansapahar (1)  01:42-01:42-  2815.2 48253mWCRBansapahar, Uttar Pradesh
11.12%==%MKPManikpur Junction (4)  01:46-01:46-  2818.7 48250mNCRManikpur, Uttar Pradesh
11.13%==%PNHIPanhaiX  02:01-02:01-  2830.8 48214mNCRManikpur, Uttar Pradesh
11.14%==%DBRDabhaura (2)X  02:14-02:14-  2841.2 48201mNCRDabhaura, Uttar Pradesh
11.15%==%KTDDKataiya DandiX  02:27-02:27-  2851.4 48168mNCRKataiya, Uttar Pradesh
11.16%==%BRGBargarhX  02:34-02:34-  2856.9 48166mNCRBargarh, Uttar Pradesh
11.17%==%MJHRMajhiari  02:43-02:43-  2864.0 48145mNCRNational Highway 76, Uttar Pradesh
11.18%==%SRJShankargarh (3)X  02:55-02:55-  2873.7 48132mNCRShankargarh, Uttar Pradesh
11.19%==%LOGLohgara (2)O  03:07-03:07-  2883.6 48112mNCRLohgara, Uttar Pradesh
11.20%==%MFXMadaraha  03:15-03:15-  2889.9 48103mNCRNational Highway 76, Uttar Pradesh
11.21%==%JSRJasra (2)O  03:22-03:22-  2895.5 4897mNCRJasra, Uttar Pradesh
11.22%==%IDGJIradatganj (3)  03:30-03:30-  2901.7 4899mNCRAllahabad, Uttar Pradesh
11.23%==%LKJNLink Junction CabinX  03:36-03:36-  2906.6 4894mNCRAllahabad, Uttar Pradesh
11.24%==/NYNNaini Junction (4)  03:41-03:41-  2911.1 4898mNCRAllahabad, Uttar Pradesh
12/==/ALDAllahabad Junction (10)XO03:50+1304:15+1425m72918.257100mNCRAllahabad 211003, Uttar Pradesh
12.1%--%PRGPrayag Junction (3)  04:22-04:22-  2924.5 5796mNRAllahabad, Uttar Pradesh
12.2%--%PFMPhaphamau Junction (3)  04:28-04:28-  2930.9 5799mNRAllahabad, Uttar Pradesh
12.3%--%THWTharwai (1)  04:34-04:34-  2936.2 5796mNRDistrict - Allahabad 221507, Uttar Pradesh
12.4%--%SYCSarai Chandi  04:42-04:42-  2944.0 5795mNR221507, Uttar Pradesh
12.5%--%PLPPhulpur (3)  04:53-04:53-  2954.5 5793mNRDistrict - Allahabad 212402, Uttar Pradesh
12.6%--%URPRUgrasenpur (2)  05:04-05:04-  2964.9 5796mNRJanghai, Uttar Pradesh
12.7%--%BYHABarya Ram  05:08-05:08-  2968.7 5792mNR212405, Uttar Pradesh
13|--%JNHJanghai Junction (3)  05:17+3605:19+372m--2977.56392mNRUttar Pradesh 212401, Uttar Pradesh
13.1%==%SQNSarai Kansrai (2)  05:24-05:24-  2982.5 6392mNRGopalaha Marg, Uttar Pradesh
13.2%==%SAWSuriawan (2)  05:33-05:33-  2992.5 6390mNR221404, Uttar Pradesh
13.3%==%MOFMondh (2)  05:40-05:40-  2999.8 6391mNRUttar Pradesh 221406, Uttar Pradesh
14%==%BOYBhadohi (2)X  05:48+4605:50+472m--21007.93690mNRUttar Pradesh 221401, Uttar Pradesh
14.1%==%PRFParsipur (2)  06:04-06:04-  21016.2 3687mNRSant Ravidas Nagar, Uttar Pradesh
14.2%==%KEHKapseti (2)X  06:18-06:18-  21024.6 3685mNRState Highway 87, Uttar Pradesh
14.3%==%SWPRSewapuri (2)  06:27-06:27-  21029.9 3687mNRState Highway 87, Uttar Pradesh
14.4%==%CHHChaukhandi  06:38-06:38-  21036.5 3684mNR221405, Uttar Pradesh
14.5%==%LOTLohta (3)  06:55-06:55-  21046.5 3680mNRLohta, Uttar Pradesh
15%==/BSBVaranasi Junction (9)  07:05+27-121052.4-82mNRVaranasi 221002, Uttar Pradesh
Scroll to Top
Scroll to Bottom